Time;durP1;ratioP1;P1;durP2;ratioP2;P2;SDS_P1;SDS_P2;PMS_P1;PMS_P2;Temp;Humidity;BMP_temperature;BMP_pressure;BME280_temperature;BME280_humidity;BME280_pressure;Samples;Min_cycle;Max_cycle;Signal;HPM_P1;HPM_P2
2022/03/02 00:01:09;;;;;;;70.23;35.07;;;;;;;3.18;47.75;101566.53;6103578;22;101059;-77
2022/03/02 00:03:36;;;;;;;75.83;36.90;;;;;;;2.95;47.68;101532.44;6153624;22;96716;-76
2022/03/02 00:06:02;;;;;;;77.07;36.27;;;;;;;3.10;47.13;101560.34;6128135;22;97092;-81
2022/03/02 00:08:28;;;;;;;77.07;36.87;;;;;;;3.10;47.35;101561.22;6102620;22;101380;-77
2022/03/02 00:10:54;;;;;;;82.73;36.90;;;;;;;3.02;47.62;101538.59;6104954;22;101306;-79
2022/03/02 00:13:19;;;;;;;83.83;39.40;;;;;;;3.07;47.86;101563.78;6104648;22;97117;-79
2022/03/02 00:15:45;;;;;;;69.07;34.97;;;;;;;2.89;48.23;101524.56;6130844;22;96798;-80
2022/03/02 00:18:11;;;;;;;75.83;36.40;;;;;;;3.02;47.77;101538.59;6103936;22;101066;-79
2022/03/02 00:20:37;;;;;;;72.90;37.87;;;;;;;3.02;47.60;101544.66;6105176;22;100471;-77
2022/03/02 00:23:02;;;;;;;80.67;35.97;;;;;;;2.98;47.56;101545.47;6129551;22;97102;-80
2022/03/02 00:25:28;;;;;;;76.87;36.43;;;;;;;2.81;47.67;101527.00;6130072;22;96784;-78
2022/03/02 00:27:54;;;;;;;72.97;35.93;;;;;;;2.83;47.78;101535.72;6129609;22;101087;-77
2022/03/02 00:30:22;;;;;;;72.80;34.53;;;;;;;2.80;47.17;101534.78;6103881;22;101788;-77
2022/03/02 00:32:48;;;;;;;74.53;34.47;;;;;;;2.84;47.51;101536.56;6105478;22;96729;-77
2022/03/02 00:35:14;;;;;;;81.77;34.93;;;;;;;2.80;47.52;101538.25;6104986;22;96792;-77
2022/03/02 00:37:39;;;;;;;71.90;35.03;;;;;;;2.74;47.86;101534.69;6128017;22;98473;-78
2022/03/02 00:40:05;;;;;;;69.67;33.27;;;;;;;2.63;47.91;101535.34;6104324;22;101440;-79
2022/03/02 00:42:31;;;;;;;82.20;37.77;;;;;;;2.64;47.83;101538.81;6129361;22;96678;-78
2022/03/02 00:44:57;;;;;;;73.30;35.60;;;;;;;2.70;48.19;101550.16;6130389;22;96930;-77
2022/03/02 00:47:23;;;;;;;74.67;35.80;;;;;;;2.66;48.18;101544.91;6103907;22;101235;-78
2022/03/02 00:49:49;;;;;;;76.97;36.30;;;;;;;2.76;48.32;101554.59;6129540;22;100996;-77
2022/03/02 00:52:15;;;;;;;78.37;36.80;;;;;;;2.69;48.68;101547.56;6128456;22;96959;-78
2022/03/02 00:54:41;;;;;;;81.27;37.40;;;;;;;2.60;48.62;101529.25;6104121;22;96845;-78
2022/03/02 00:57:07;;;;;;;74.77;34.07;;;;;;;2.71;48.72;101540.69;6103832;22;101456;-79
2022/03/02 00:59:33;;;;;;;70.03;36.00;;;;;;;2.67;48.60;101520.72;6129099;22;101189;-77
2022/03/02 01:01:58;;;;;;;77.90;35.43;;;;;;;2.62;48.60;101531.03;6130435;22;96615;-79
2022/03/02 01:04:24;;;;;;;75.40;34.13;;;;;;;2.37;48.90;101475.28;6129618;22;96875;-79
2022/03/02 01:06:50;;;;;;;68.47;35.17;;;;;;;2.58;49.05;101525.75;6154069;22;97899;-77
2022/03/02 01:09:15;;;;;;;72.67;36.10;;;;;;;2.58;48.70;101525.75;6102514;22;101619;-78
2022/03/02 01:11:41;;;;;;;68.73;33.70;;;;;;;2.50;48.95;101512.63;6128749;22;96960;-78
2022/03/02 01:14:07;;;;;;;73.73;36.00;;;;;;;2.53;49.02;101519.59;6104384;22;96925;-78
2022/03/02 01:16:33;;;;;;;70.47;33.77;;;;;;;2.53;49.12;101528.28;6154571;22;98336;-79
2022/03/02 01:18:58;;;;;;;79.80;36.00;;;;;;;2.55;48.98;101518.78;6129502;22;100397;-77
2022/03/02 01:21:24;;;;;;;76.63;36.03;;;;;;;2.41;48.87;101496.94;6104466;22;96599;-77
2022/03/02 01:23:53;;;;;;;77.10;35.20;;;;;;;2.39;49.18;101503.81;6154807;22;96721;-77
2022/03/02 01:26:21;;;;;;;79.00;37.43;;;;;;;2.43;48.95;101496.13;6128341;22;101525;-77
2022/03/02 01:28:47;;;;;;;73.13;35.27;;;;;;;2.41;49.74;101505.56;6129287;22;101012;-77
2022/03/02 01:31:13;;;;;;;72.17;34.50;;;;;;;2.30;49.50;101493.25;6129468;22;96639;-77
2022/03/02 01:33:39;;;;;;;76.77;36.03;;;;;;;2.19;49.40;101473.22;6104750;22;96818;-77
2022/03/02 01:36:04;;;;;;;73.93;37.07;;;;;;;2.11;49.89;101448.88;6128543;22;98283;-77
2022/03/02 01:38:30;;;;;;;76.30;37.07;;;;;;;2.29;49.52;101496.72;6128297;22;97843;-77
2022/03/02 01:40:55;;;;;;;69.90;34.33;;;;;;;2.07;49.42;101459.19;6130167;22;96727;-77
2022/03/02 01:43:21;;;;;;;71.23;34.30;;;;;;;2.09;49.53;101478.19;6105038;22;97075;-77
2022/03/02 01:45:47;;;;;;;71.50;35.80;;;;;;;2.15;49.88;101488.66;6105892;22;101196;-77
2022/03/02 01:48:13;;;;;;;76.50;35.57;;;;;;;2.19;49.25;101485.31;6104827;22;102167;-77
2022/03/02 01:50:38;;;;;;;75.47;34.73;;;;;;;2.21;49.20;101476.72;6106417;22;97735;-77
2022/03/02 01:53:04;;;;;;;68.20;34.87;;;;;;;2.06;49.28;101458.28;6106150;22;97211;-77
2022/03/02 01:55:29;;;;;;;75.60;36.20;;;;;;;1.79;48.99;101414.63;6155315;22;97389;-77
2022/03/02 01:57:56;;;;;;;72.93;35.10;;;;;;;2.12;48.90;101471.34;6105229;22;101692;-77
2022/03/02 02:00:23;;;;;;;67.50;34.13;;;;;;;2.11;49.21;101474.78;6129855;22;97077;-77
2022/03/02 02:02:49;;;;;;;65.73;33.43;;;;;;;2.11;49.46;101473.94;6105702;22;96821;-77
2022/03/02 02:05:15;;;;;;;73.20;35.00;;;;;;;2.10;49.35;101467.88;6130334;22;97560;-77
2022/03/02 02:07:41;;;;;;;82.73;36.10;;;;;;;2.09;49.21;101462.66;6105138;22;101466;-77
2022/03/02 02:10:07;;;;;;;77.70;34.00;;;;;;;2.07;49.51;101454.88;6106539;22;97710;-77
2022/03/02 02:12:33;;;;;;;70.17;34.20;;;;;;;2.10;49.22;101461.81;6129373;22;97080;-77
2022/03/02 02:14:59;;;;;;;72.30;34.67;;;;;;;2.00;49.80;101453.00;6105653;22;101327;-77
2022/03/02 02:17:26;;;;;;;75.93;34.73;;;;;;;1.96;50.14;101446.88;6155004;22;97751;-76
2022/03/02 02:19:52;;;;;;;69.53;33.90;;;;;;;1.73;50.23;101410.19;6131209;22;96628;-77
2022/03/02 02:22:19;;;;;;;77.83;33.60;;;;;;;1.97;49.82;101446.03;6129704;22;97047;-77
2022/03/02 02:24:44;;;;;;;71.57;33.83;;;;;;;1.83;50.27;101428.50;6130153;22;98467;-77
2022/03/02 02:27:12;;;;;;;69.17;33.87;;;;;;;1.89;50.22;101451.91;6104568;22;101668;-77
2022/03/02 02:29:38;;;;;;;73.60;34.33;;;;;;;1.96;49.73;101448.59;6155328;22;96645;-77
2022/03/02 02:32:05;;;;;;;70.60;33.93;;;;;;;1.86;49.51;101421.63;6156117;22;96853;-77
2022/03/02 02:34:30;;;;;;;70.93;34.93;;;;;;;1.84;50.09;101436.31;6104512;22;101236;-77
2022/03/02 02:36:58;;;;;;;69.47;34.73;;;;;;;1.89;49.88;101439.84;6105725;22;100816;-77
2022/03/02 02:39:27;;;;;;;73.67;35.50;;;;;;;1.73;50.41;101443.84;6130285;22;97030;-77
2022/03/02 02:41:53;;;;;;;77.27;37.13;;;;;;;1.80;50.28;101442.25;6105904;22;97277;-77
2022/03/02 02:44:18;;;;;;;75.27;38.47;;;;;;;1.61;49.87;101407.38;6129327;22;97755;-77
2022/03/02 02:46:44;;;;;;;96.87;48.77;;;;;;;1.72;50.02;101430.88;6130275;22;101046;-78
2022/03/02 02:49:10;;;;;;;111.13;52.87;;;;;;;1.66;50.48;101422.97;6154454;22;97316;-77
2022/03/02 02:51:36;;;;;;;101.73;51.87;;;;;;;1.68;50.48;101439.41;6105008;22;97504;-79
2022/03/02 02:54:02;;;;;;;86.97;43.87;;;;;;;1.66;50.52;101429.03;6104543;22;101366;-79
2022/03/02 02:56:27;;;;;;;87.60;40.17;;;;;;;1.64;50.69;101424.69;6104670;22;101688;-78
2022/03/02 02:58:53;;;;;;;82.77;40.33;;;;;;;1.44;50.31;101399.25;6105293;22;96585;-79
2022/03/02 03:01:19;;;;;;;84.97;38.73;;;;;;;1.66;50.82;101435.91;6155050;22;96798;-80
2022/03/02 03:03:44;;;;;;;81.30;37.60;;;;;;;1.51;50.91;101415.78;6104928;22;100850;-79
2022/03/02 03:06:10;;;;;;;72.33;34.10;;;;;;;1.59;50.57;101433.19;6106167;22;100977;-79
2022/03/02 03:08:36;;;;;;;74.17;35.93;;;;;;;1.55;50.74;101423.66;6129257;22;96693;-81
2022/03/02 03:11:03;;;;;;;85.90;41.07;;;;;;;1.39;50.77;101392.25;6130875;22;96887;-79
2022/03/02 03:13:29;;;;;;;84.73;40.73;;;;;;;1.36;51.24;101405.97;6129130;22;97482;-79
2022/03/02 03:15:55;;;;;;;78.77;37.63;;;;;;;1.52;50.81;101426.16;6130290;22;97542;-79
2022/03/02 03:18:21;;;;;;;81.00;38.93;;;;;;;1.47;51.48;101426.91;6104808;22;96630;-80
2022/03/02 03:20:46;;;;;;;80.23;36.40;;;;;;;1.46;51.35;101422.59;6130105;22;96907;-79
2022/03/02 03:23:12;;;;;;;73.13;34.97;;;;;;;1.38;51.40;101416.38;6129721;22;101124;-80
2022/03/02 03:25:37;;;;;;;73.07;35.03;;;;;;;1.33;51.12;101408.50;6154877;22;98327;-79
2022/03/02 03:28:04;;;;;;;72.43;34.13;;;;;;;1.26;51.43;101397.16;6130061;22;96579;-80
2022/03/02 03:30:29;;;;;;;67.90;32.70;;;;;;;1.26;51.42;101404.94;6130331;22;96849;-80
2022/03/02 03:32:55;;;;;;;68.93;33.50;;;;;;;1.40;51.29;101417.25;6129293;22;101426;-79
2022/03/02 03:35:23;;;;;;;74.80;35.30;;;;;;;1.35;51.46;101404.25;6129598;22;97858;-80
2022/03/02 03:37:48;;;;;;;70.93;35.40;;;;;;;1.12;51.55;101376.19;6104240;22;96648;-79
2022/03/02 03:40:16;;;;;;;68.83;34.33;;;;;;;1.31;52.07;101402.44;6106168;22;96882;-79
2022/03/02 03:42:43;;;;;;;75.57;34.50;;;;;;;1.10;51.54;101376.97;6102663;22;101769;-80
2022/03/02 03:45:10;;;;;;;82.73;36.53;;;;;;;1.23;51.72;101404.00;6129994;22;101105;-80
2022/03/02 03:47:35;;;;;;;70.93;33.53;;;;;;;1.24;52.14;101401.44;6104085;22;97100;-80
2022/03/02 03:50:02;;;;;;;76.53;34.17;;;;;;;1.17;52.15;101402.16;6105739;22;96751;-80
2022/03/02 03:52:27;;;;;;;78.90;35.60;;;;;;;1.22;51.83;101407.41;6129598;22;97667;-80
2022/03/02 03:54:53;;;;;;;76.53;33.50;;;;;;;1.20;52.11;101401.34;6105996;22;100898;-80
2022/03/02 03:57:18;;;;;;;77.33;37.73;;;;;;;1.20;51.53;101396.19;6130041;22;97019;-77
2022/03/02 03:59:44;;;;;;;68.63;31.90;;;;;;;1.25;51.85;101407.47;6105198;22;96851;-77
2022/03/02 04:02:10;;;;;;;70.20;33.77;;;;;;;1.03;51.84;101381.16;6128734;22;101032;-78
2022/03/02 04:04:35;;;;;;;69.03;33.37;;;;;;;1.13;52.00;101405.50;6129018;22;98016;-77
2022/03/02 04:07:01;;;;;;;75.50;34.03;;;;;;;1.13;52.35;101396.06;6105955;22;96590;-78
2022/03/02 04:09:26;;;;;;;65.73;32.40;;;;;;;1.04;52.08;101393.22;6129981;22;97073;-77
2022/03/02 04:11:52;;;;;;;69.93;32.77;;;;;;;1.11;52.13;101395.13;6105695;22;101416;-77
2022/03/02 04:14:18;;;;;;;69.47;32.50;;;;;;;1.11;52.26;101392.53;6105319;22;101350;-77
2022/03/02 04:16:43;;;;;;;79.57;32.57;;;;;;;0.97;52.13;101369.81;6104369;22;97111;-77
2022/03/02 04:19:09;;;;;;;77.83;35.00;;;;;;;1.05;51.82;101389.81;6105626;22;97124;-77
2022/03/02 04:21:34;;;;;;;77.90;32.90;;;;;;;1.06;52.30;101382.94;6104556;22;101338;-79
2022/03/02 04:24:00;;;;;;;71.07;32.70;;;;;;;0.97;52.35;101368.09;6105143;22;100851;-79
2022/03/02 04:26:26;;;;;;;75.77;33.67;;;;;;;0.95;52.07;101377.53;6104235;22;96640;-80
2022/03/02 04:28:52;;;;;;;79.67;33.27;;;;;;;0.77;52.52;101346.09;6155251;22;97000;-79
2022/03/02 04:31:17;;;;;;;72.00;32.40;;;;;;;1.00;51.97;101370.75;6130183;22;97779;-79
2022/03/02 04:33:43;;;;;;;76.20;32.50;;;;;;;0.98;52.17;101364.66;6104216;22;100829;-79
2022/03/02 04:36:09;;;;;;;70.57;32.87;;;;;;;0.91;52.19;101365.38;6130096;22;96650;-79
2022/03/02 04:38:35;;;;;;;81.10;35.57;;;;;;;0.89;52.44;101357.56;6129117;22;96791;-79
2022/03/02 04:41:01;;;;;;;74.33;33.07;;;;;;;0.93;52.42;101361.09;6130502;22;97882;-79
2022/03/02 04:43:26;;;;;;;74.13;34.00;;;;;;;0.89;52.29;101362.75;6129527;22;101329;-79
2022/03/02 04:45:52;;;;;;;68.57;32.60;;;;;;;0.84;52.42;101351.47;6130373;22;96992;-79
2022/03/02 04:48:18;;;;;;;71.90;33.87;;;;;;;0.90;51.86;101354.16;6105044;22;97154;-79
2022/03/02 04:50:43;;;;;;;72.70;33.77;;;;;;;0.85;52.11;101355.78;6153661;22;101079;-77
2022/03/02 04:53:09;;;;;;;73.53;34.00;;;;;;;0.87;52.47;101360.97;6129211;22;101385;-76
2022/03/02 04:55:35;;;;;;;75.63;34.00;;;;;;;0.76;52.13;101346.94;6104731;22;96672;-77
2022/03/02 04:58:01;;;;;;;81.57;35.70;;;;;;;0.42;52.62;101295.38;6104701;22;96788;-77
2022/03/02 05:00:33;;;;;;;77.60;37.00;;;;;;;0.72;52.53;101353.75;6128559;22;101260;-78
2022/03/02 05:03:00;;;;;;;83.32;35.10;;;;;;;0.69;52.85;101358.84;6104389;22;101187;-78
2022/03/02 05:05:27;;;;;;;71.70;34.07;;;;;;;0.52;52.32;101317.09;6129801;22;96585;-78
2022/03/02 05:07:53;;;;;;;68.63;32.30;;;;;;;0.67;52.73;101356.25;6105471;22;97057;-77
2022/03/02 05:10:20;;;;;;;69.10;33.43;;;;;;;0.64;52.58;101340.66;6155371;22;97872;-77
2022/03/02 05:12:46;;;;;;;73.83;32.90;;;;;;;0.70;52.13;101349.38;6103514;22;101077;-78
2022/03/02 05:15:12;;;;;;;72.17;33.03;;;;;;;0.56;52.70;101351.66;6129642;22;96541;-78
2022/03/02 05:17:39;;;;;;;76.80;34.47;;;;;;;0.53;52.60;101351.59;6128216;22;97082;-79
2022/03/02 05:20:06;;;;;;;81.20;35.03;;;;;;;0.41;53.05;101328.94;6105836;22;101471;-77
2022/03/02 05:22:32;;;;;;;88.93;36.93;;;;;;;0.44;52.61;101347.09;6104998;22;100915;-78
2022/03/02 05:24:58;;;;;;;83.27;34.57;;;;;;;0.46;53.03;101345.38;6131712;22;98033;-77
2022/03/02 05:27:24;;;;;;;85.30;36.07;;;;;;;0.38;53.40;101327.16;6106266;22;96786;-80
2022/03/02 05:29:50;;;;;;;83.20;36.93;;;;;;;0.31;53.31;101319.22;6105904;22;100982;-77
2022/03/02 05:32:15;;;;;;;82.07;37.33;;;;;;;0.54;52.95;101351.63;6130448;22;101230;-78
2022/03/02 05:34:41;;;;;;;85.60;38.20;;;;;;;0.49;53.04;101335.13;6104689;22;97141;-77
2022/03/02 05:37:07;;;;;;;89.97;40.47;;;;;;;0.48;53.14;101355.78;6131048;22;96823;-78
2022/03/02 05:39:32;;;;;;;79.40;40.13;;;;;;;0.24;53.40;101314.75;6104187;22;100892;-77
2022/03/02 05:41:58;;;;;;;83.80;39.47;;;;;;;0.47;53.53;101362.66;6106190;22;101389;-77
2022/03/02 05:44:24;;;;;;;91.37;41.27;;;;;;;0.51;53.44;101348.09;6105903;22;96695;-77
2022/03/02 05:46:49;;;;;;;84.93;36.07;;;;;;;0.58;53.38;101362.88;6156104;22;96789;-77
2022/03/02 05:49:16;;;;;;;81.03;38.27;;;;;;;0.57;53.11;101359.44;6104287;22;101661;-77
2022/03/02 05:51:42;;;;;;;94.93;38.93;;;;;;;0.40;53.33;101340.94;6104870;22;101591;-77
2022/03/02 05:54:08;;;;;;;94.17;38.23;;;;;;;0.51;53.33;101367.03;6130132;22;96710;-76
2022/03/02 05:56:34;;;;;;;87.37;37.60;;;;;;;0.12;53.33;101299.84;6155885;22;96792;-77
2022/03/02 05:58:59;;;;;;;89.83;38.93;;;;;;;0.37;53.49;101356.38;6130212;22;101723;-76
2022/03/02 06:01:25;;;;;;;79.63;37.37;;;;;;;0.42;53.42;101365.13;6105094;22;100925;-76
2022/03/02 06:03:51;;;;;;;84.73;39.10;;;;;;;0.42;53.11;101365.13;6153255;22;96662;-76
2022/03/02 06:06:16;;;;;;;81.57;38.40;;;;;;;0.52;53.32;101349.81;6105051;22;97299;-77
2022/03/02 06:08:42;;;;;;;84.93;37.63;;;;;;;0.59;53.52;101367.25;6128423;22;97486;-79
2022/03/02 06:11:09;;;;;;;88.67;38.27;;;;;;;0.61;53.04;101365.53;6130876;22;98355;-82
2022/03/02 06:13:34;;;;;;;80.23;38.03;;;;;;;0.64;53.50;101366.50;6105725;22;96788;-77
2022/03/02 06:16:01;;;;;;;86.27;38.40;;;;;;;0.61;53.28;101345.78;6106907;22;96608;-82
2022/03/02 06:18:27;;;;;;;81.27;38.13;;;;;;;0.74;53.49;101369.31;6130705;22;101624;-85
2022/03/02 06:20:54;;;;;;;76.63;37.40;;;;;;;0.83;53.21;101374.66;6105877;22;101387;-77
2022/03/02 06:23:20;;;;;;;86.70;38.07;;;;;;;0.80;53.55;101357.38;6105186;22;96665;-76
2022/03/02 06:25:46;;;;;;;78.73;35.73;;;;;;;0.89;53.12;101359.28;6105734;22;96735;-75
2022/03/02 06:28:12;;;;;;;77.03;35.47;;;;;;;1.15;52.30;101374.50;6128579;22;100784;-77
2022/03/02 06:30:38;;;;;;;76.83;36.57;;;;;;;1.06;51.88;101346.72;6105223;22;100794;-77
2022/03/02 06:33:03;;;;;;;79.67;37.50;;;;;;;1.34;52.03;101371.47;6129182;22;97239;-78
2022/03/02 06:35:29;;;;;;;78.37;34.27;;;;;;;1.28;51.59;101356.69;6130056;22;96531;-79
2022/03/02 06:37:55;;;;;;;73.67;33.60;;;;;;;1.50;51.57;101368.31;6129697;22;97770;-78
2022/03/02 06:40:21;;;;;;;75.90;33.23;;;;;;;1.58;51.47;101371.06;6130257;22;97928;-84
2022/03/02 06:43:03;;;;;;;70.70;33.53;;;;;;;1.71;51.22;101367.84;6129133;22;96645;-83
2022/03/02 06:45:32;;;;;;;70.13;33.53;;;;;;;1.87;50.80;101371.63;6106777;22;96953;-79
2022/03/02 06:48:10;;;;;;;73.70;35.40;;;;;;;1.96;50.65;101363.16;6130151;22;101499;-84
2022/03/02 06:50:38;;;;;;;79.90;37.97;;;;;;;2.01;50.25;101344.25;6127963;22;100525;-83
2022/03/02 06:53:05;;;;;;;79.73;38.23;;;;;;;2.18;49.99;101364.38;6104258;22;96680;-84
2022/03/02 06:55:30;;;;;;;65.50;33.47;;;;;;;2.10;49.71;101325.41;6129702;22;97521;-81
2022/03/02 06:57:59;;;;;;;73.73;34.87;;;;;;;2.37;50.01;101353.47;6103829;22;101486;-82
2022/03/02 07:00:25;;;;;;;73.13;33.43;;;;;;;2.51;50.00;101356.28;6129580;22;101142;-84
2022/03/02 07:03:11;;;;;;;69.27;33.63;;;;;;;2.66;49.11;101345.28;6128608;22;97262;-84
2022/03/02 07:05:38;;;;;;;81.93;32.97;;;;;;;2.94;48.68;101355.19;6104168;22;96554;-85
2022/03/02 07:08:04;;;;;;;76.03;33.83;;;;;;;3.04;49.07;101347.53;6103637;22;101465;-85
2022/03/02 07:10:33;;;;;;;69.93;33.70;;;;;;;3.09;48.15;101338.09;6129415;22;97964;-82
2022/03/02 07:13:01;;;;;;;71.43;33.50;;;;;;;3.25;48.18;101350.38;6128853;22;97056;-84
2022/03/02 07:15:27;;;;;;;69.20;32.93;;;;;;;3.33;46.80;101312.41;6105184;22;96930;-84
2022/03/02 07:17:53;;;;;;;70.17;34.90;;;;;;;3.58;46.55;101343.88;6127351;22;100938;-84
2022/03/02 07:20:19;;;;;;;79.13;35.60;;;;;;;3.63;46.58;101342.16;6129078;22;99967;-83
2022/03/02 07:22:51;;;;;;;78.80;38.07;;;;;;;3.58;46.49;101313.56;6103705;22;96657;-85
2022/03/02 07:25:17;;;;;;;76.57;35.80;;;;;;;3.83;46.84;101348.44;6129440;22;96835;-83
2022/03/02 07:27:42;;;;;;;71.90;36.40;;;;;;;3.96;46.67;101344.25;6152139;22;101102;-85
2022/03/02 07:30:09;;;;;;;75.57;35.40;;;;;;;4.23;46.83;101338.41;6106067;22;100389;-84
2022/03/02 07:32:36;;;;;;;70.77;34.70;;;;;;;4.46;46.85;101342.91;6129383;22;96939;-85
2022/03/02 07:35:04;;;;;;;80.70;36.27;;;;;;;4.73;45.49;101340.50;6106609;22;96860;-84
2022/03/02 07:37:30;;;;;;;80.60;36.40;;;;;;;4.84;46.33;101326.69;6128937;22;100983;-85
2022/03/02 07:39:56;;;;;;;73.30;34.27;;;;;;;5.10;46.11;101319.88;6104975;22;101551;-84
2022/03/02 07:42:22;;;;;;;65.63;32.63;;;;;;;5.34;45.13;101332.09;6103945;22;96777;-84
2022/03/02 07:44:49;;;;;;;64.40;32.57;;;;;;;5.47;43.98;101317.41;6154572;22;97038;-86
2022/03/02 07:47:15;;;;;;;62.87;29.63;;;;;;;5.62;43.42;101322.66;6130131;22;97955;-83
2022/03/02 07:49:41;;;;;;;59.77;30.53;;;;;;;5.90;42.59;101343.53;6154059;22;97801;-84
2022/03/02 07:52:07;;;;;;;52.00;29.00;;;;;;;5.98;42.11;101334.03;6131083;22;96559;-84
2022/03/02 07:54:38;;;;;;;63.13;31.90;;;;;;;5.83;41.47;101287.94;6103093;22;98092;-83
2022/03/02 07:57:06;;;;;;;55.40;28.80;;;;;;;6.23;41.93;101337.53;6104774;22;101198;-81
2022/03/02 07:59:37;;;;;;;68.97;31.93;;;;;;;6.40;41.80;101310.53;6155187;22;97761;-83
2022/03/02 08:02:05;;;;;;;56.87;28.70;;;;;;;6.67;41.21;101325.31;6130593;22;96605;-83
2022/03/02 08:04:32;;;;;;;57.30;28.97;;;;;;;6.70;41.00;101297.47;6129932;22;96822;-82
2022/03/02 08:06:57;;;;;;;54.60;28.67;;;;;;;7.09;40.67;101315.59;6103759;22;100912;-82
2022/03/02 08:09:23;;;;;;;57.17;29.20;;;;;;;6.97;40.18;101288.66;6103513;22;101360;-82
2022/03/02 08:11:49;;;;;;;57.63;27.80;;;;;;;7.33;39.97;101299.84;6129365;22;96629;-82
2022/03/02 08:14:17;;;;;;;53.40;27.58;;;;;;;7.53;39.31;101310.16;6105324;22;97548;-82
2022/03/02 08:16:45;;;;;;;49.93;25.53;;;;;;;7.72;39.07;101316.16;6128241;22;101418;-82
2022/03/02 08:19:11;;;;;;;48.53;24.60;;;;;;;7.89;38.16;101318.66;6105055;22;100976;-77
2022/03/02 08:21:40;;;;;;;48.27;25.50;;;;;;;7.87;37.62;101297.75;6105438;22;96646;-82
2022/03/02 08:24:08;;;;;;;44.72;24.08;;;;;;;8.09;37.77;101319.38;6154844;22;97126;-84
2022/03/02 08:26:37;;;;;;;46.38;26.35;;;;;;;8.24;37.40;101321.00;6103440;22;101540;-87
2022/03/02 08:29:11;;;;;;;49.17;27.50;;;;;;;8.29;37.48;101318.31;6128955;22;101082;-76
2022/03/02 08:31:39;;;;;;;114.18;49.83;;;;;;;8.39;37.28;101310.41;6104800;22;97147;-80
2022/03/02 08:34:06;;;;;;;118.88;50.13;;;;;;;8.54;37.00;101311.16;6105368;22;96827;-80
2022/03/02 08:36:34;;;;;;;51.28;28.40;;;;;;;8.82;37.25;101296.03;6130435;22;97695;-81
2022/03/02 08:39:08;;;;;;;43.70;25.33;;;;;;;9.03;36.15;101292.28;6129276;22;101198;-84
2022/03/02 08:41:34;;;;;;;41.17;23.08;;;;;;;9.01;35.77;101258.25;6130696;22;97405;-90
2022/03/02 08:44:00;;;;;;;49.63;25.90;;;;;;;9.32;35.01;101286.69;6156704;22;96972;-90
2022/03/02 08:46:27;;;;;;;47.35;25.30;;;;;;;9.14;35.25;101268.59;6156984;22;97398;-90
2022/03/02 08:48:53;;;;;;;45.55;25.00;;;;;;;9.67;36.05;101309.75;6130909;22;100851;-88
2022/03/02 08:51:24;;;;;;;46.58;25.45;;;;;;;9.91;35.41;101277.03;6130168;22;97162;-90
2022/03/02 08:53:50;;;;;;;63.97;32.28;;;;;;;10.40;34.93;101297.25;6131321;22;96688;-90
2022/03/02 08:56:17;;;;;;;39.15;24.15;;;;;;;10.39;33.88;101266.66;6105997;22;100491;-89
2022/03/02 08:58:43;;;;;;;40.80;22.98;;;;;;;10.41;33.68;101285.88;6129724;22;98193;-89
2022/03/02 09:01:11;;;;;;;42.03;23.42;;;;;;;10.51;33.72;101283.94;6106535;22;97063;-89
2022/03/02 09:03:37;;;;;;;40.58;23.00;;;;;;;10.74;33.14;101280.88;6131177;22;96775;-90
2022/03/02 09:06:04;;;;;;;38.35;22.58;;;;;;;10.84;33.47;101282.41;6130497;22;97668;-90
2022/03/02 09:08:31;;;;;;;48.83;23.58;;;;;;;10.75;33.21;101248.44;6130933;22;97153;-90
2022/03/02 09:10:57;;;;;;;43.90;22.73;;;;;;;11.21;33.05;101259.78;6109552;22;96714;-90
2022/03/02 09:13:23;;;;;;;32.35;18.77;;;;;;;11.55;32.47;101270.41;6129228;22;97146;-89
2022/03/02 09:15:48;;;;;;;31.23;17.65;;;;;;;11.54;30.91;101250.25;6128752;22;101269;-88
2022/03/02 09:18:14;;;;;;;27.45;16.55;;;;;;;11.49;31.48;101265.25;6127728;22;101121;-89
2022/03/02 09:20:42;;;;;;;29.02;17.05;;;;;;;11.54;30.71;101266.88;6103191;22;96643;-84
2022/03/02 09:23:07;;;;;;;30.45;17.88;;;;;;;11.72;30.47;101264.72;6126167;22;97113;-88
2022/03/02 09:25:37;;;;;;;28.05;15.95;;;;;;;11.97;30.76;101259.78;6101384;22;101434;-86
2022/03/02 09:28:03;;;;;;;30.95;16.75;;;;;;;12.40;30.45;101256.03;6100516;22;101854;-88
2022/03/02 09:30:29;;;;;;;23.15;14.57;;;;;;;12.29;29.63;101260.72;6126718;22;97285;-88
2022/03/02 09:32:55;;;;;;;19.80;12.77;;;;;;;12.19;29.11;101250.44;6100923;22;97308;-90
2022/03/02 09:35:21;;;;;;;41.78;20.95;;;;;;;12.07;29.11;101234.97;6101022;22;101152;-89
2022/03/02 09:37:53;;;;;;;25.77;16.05;;;;;;;12.34;29.36;101248.31;6129268;22;98445;-86
2022/03/02 09:40:29;;;;;;;30.00;17.83;;;;;;;12.56;28.77;101236.28;6136117;22;96717;-89
2022/03/02 09:43:01;;;;;;;31.60;16.58;;;;;;;12.71;28.54;101247.28;6155302;22;97227;-89
2022/03/02 09:45:29;;;;;;;31.73;18.95;;;;;;;12.78;28.72;101210.19;6127842;22;101180;-88
2022/03/02 09:48:03;;;;;;;27.35;15.57;;;;;;;13.24;28.30;101243.09;6150893;22;97756;-89
2022/03/02 09:50:32;;;;;;;23.27;13.88;;;;;;;13.22;28.53;101221.19;6128434;22;96871;-88
2022/03/02 09:53:00;;;;;;;23.52;12.90;;;;;;;13.12;27.36;101223.25;6130012;22;97193;-86
2022/03/02 09:55:26;;;;;;;19.27;13.00;;;;;;;13.17;27.78;101233.63;6129566;22;97543;-88
2022/03/02 09:57:56;;;;;;;15.02;10.05;;;;;;;13.29;26.95;101237.69;6129320;22;97176;-87
2022/03/02 10:00:23;;;;;;;17.40;10.68;;;;;;;13.14;26.78;101215.28;6141187;22;96692;-89
2022/03/02 10:02:55;;;;;;;15.18;10.25;;;;;;;13.03;26.69;101239.34;6131665;22;97026;-82
2022/03/02 10:05:24;;;;;;;15.30;10.68;;;;;;;13.00;26.66;101238.53;6128761;22;101087;-82
2022/03/02 10:08:03;;;;;;;20.50;11.75;;;;;;;12.73;27.06;101230.53;6129954;22;98362;-85
2022/03/02 10:10:32;;;;;;;18.35;10.05;;;;;;;12.86;27.03;101233.69;6106277;22;96938;-86
2022/03/02 10:13:02;;;;;;;16.17;10.05;;;;;;;12.67;27.23;101217.53;6105762;22;97350;-86
2022/03/02 10:15:29;;;;;;;17.10;10.13;;;;;;;12.70;27.25;101230.63;6106677;22;101698;-86
2022/03/02 10:17:58;;;;;;;14.45;9.43;;;;;;;12.42;26.50;101220.88;6103637;22;101423;-82
2022/03/02 10:20:27;;;;;;;20.02;11.88;;;;;;;12.34;27.12;101200.94;6104359;22;96671;-82
2022/03/02 10:22:58;;;;;;;17.50;11.15;;;;;;;12.71;27.27;101218.31;6128274;22;97277;-80
2022/03/02 10:25:46;;;;;;;21.00;13.03;;;;;;;12.72;27.45;101214.78;6128848;22;101006;-83
2022/03/02 10:28:16;;;;;;;20.33;13.63;;;;;;;12.64;27.33;101213.22;6080953;22;98016;-82
2022/03/02 10:30:43;;;;;;;19.20;12.40;;;;;;;12.33;27.88;101194.78;6100521;22;97282;-81
2022/03/02 10:33:19;;;;;;;23.70;14.73;;;;;;;12.36;28.51;101194.72;6101030;22;97177;-82
2022/03/02 10:36:06;;;;;;;22.92;14.50;;;;;;;12.25;28.62;101199.41;6126137;22;98179;-81
2022/03/02 10:38:55;;;;;;;24.17;14.77;;;;;;;12.06;28.38;101199.03;6100525;22;101608;-82
2022/03/02 10:41:20;;;;;;;24.15;13.90;;;;;;;12.02;28.73;101188.63;6126814;22;97548;-82
2022/03/02 10:43:56;;;;;;;28.05;14.95;;;;;;;12.05;28.78;101205.19;6102936;22;97020;-83
2022/03/02 10:46:23;;;;;;;24.73;14.55;;;;;;;12.04;28.48;101181.53;6101654;22;101444;-85
2022/03/02 10:49:13;;;;;;;22.83;15.27;;;;;;;12.09;28.79;101193.66;6152941;22;97682;-85
2022/03/02 10:51:39;;;;;;;19.95;12.25;;;;;;;12.00;29.25;101178.13;6081987;22;97397;-86
2022/03/02 10:54:07;;;;;;;25.02;14.18;;;;;;;12.06;29.05;101190.25;6074375;22;97206;-86
2022/03/02 10:56:39;;;;;;;21.85;13.48;;;;;;;11.78;29.09;101183.06;6152195;22;98434;-85
2022/03/02 10:59:16;;;;;;;21.48;13.48;;;;;;;11.54;29.34;101166.97;6100008;22;101579;-82
2022/03/02 11:01:44;;;;;;;24.35;13.90;;;;;;;11.62;29.57;101182.56;6102156;22;96737;-88
2022/03/02 11:04:10;;;;;;;22.95;13.27;;;;;;;11.25;29.33;101162.41;6126471;22;96811;-87
2022/03/02 11:06:37;;;;;;;20.20;12.60;;;;;;;11.13;29.47;101154.81;6076751;22;100855;-87
2022/03/02 11:09:03;;;;;;;18.80;12.70;;;;;;;11.09;29.50;101174.19;6101050;22;100930;-87
2022/03/02 11:11:33;;;;;;;23.02;12.85;;;;;;;10.99;29.62;101167.41;6077486;22;96674;-87